Gulfport, Mississippi
Current Conditions -  °F | °C
As of 8:53 PM on Sunday 21 Dec 2014 (Local Time) from KGPT Reporting Station
Haze Haze  
Wind Chill: 56°   Ceiling: 900
Heat Index: 56°   Visibility: 5mi
Dew Point: 53°   Wind: 8mph
Humidity: 90%   Direction: 70°ENE
Pressure: 29.98"   Gusts: NA
Location:  30.38°N, 89.09°W
Report Text: KGPT 220253Z 07007KT 5SM BR OVC009 13/12 A2998 RMK AO2 CIG 006V012 SLP151 T01330117 58003
Loading
Personal Weather Stations






























Interactive Weather Map New forecast layout! Learn more

10-Day Weather Forecast

Advertisements
Track Severe Weather on mobile